createdAt,value
2018-09-25T00:00:17.405Z,9.42
2018-09-25T00:01:17.420Z,9.47
2018-09-25T00:02:17.429Z,9.54
2018-09-25T00:03:17.444Z,9.56
2018-09-25T00:04:17.453Z,9.50
2018-09-25T00:05:17.474Z,9.42
2018-09-25T00:06:17.482Z,9.42
2018-09-25T00:07:17.511Z,9.29
2018-09-25T00:08:17.500Z,9.28
2018-09-25T00:09:17.513Z,9.23
2018-09-25T00:10:17.574Z,9.18
2018-09-25T00:11:17.538Z,9.26
2018-09-25T00:12:17.546Z,9.38
2018-09-25T00:13:17.560Z,9.40
2018-09-25T00:14:17.568Z,9.39
2018-09-25T00:15:17.580Z,9.33
2018-09-25T00:16:17.599Z,9.26
2018-09-25T00:17:17.615Z,9.26
2018-09-25T00:18:17.616Z,9.31
2018-09-25T00:19:17.626Z,9.26
2018-09-25T00:20:17.845Z,9.24
2018-09-25T00:21:17.650Z,9.15
2018-09-25T00:22:17.709Z,9.24
2018-09-25T00:23:17.671Z,9.18
2018-09-25T00:24:17.685Z,9.21
2018-09-25T00:25:17.698Z,9.18
2018-09-25T00:26:17.710Z,9.17
2018-09-25T00:27:17.743Z,9.20
2018-09-25T00:28:17.729Z,9.13
2018-09-25T00:29:17.748Z,9.14
2018-09-25T00:30:17.756Z,9.11
2018-09-25T00:31:17.767Z,9.11
2018-09-25T00:32:17.777Z,9.14
2018-09-25T00:33:17.788Z,9.11
2018-09-25T00:34:17.816Z,9.05
2018-09-25T00:35:17.810Z,9.10
2018-09-25T00:36:17.820Z,9.04
2018-09-25T00:37:17.831Z,9.11
2018-09-25T00:38:17.842Z,9.08
2018-09-25T00:39:17.857Z,9.04
2018-09-25T00:40:17.867Z,9.08
2018-09-25T00:41:17.879Z,8.99
2018-09-25T00:42:17.887Z,8.99
2018-09-25T00:43:17.902Z,9.01
2018-09-25T00:44:17.912Z,8.98
2018-09-25T00:45:17.923Z,9.10
2018-09-25T00:46:17.933Z,9.04
2018-09-25T00:47:17.945Z,9.05
2018-09-25T00:48:17.958Z,9.01
2018-09-25T00:49:17.969Z,9.10
2018-09-25T00:50:17.980Z,9.02
2018-09-25T00:51:18.003Z,9.05
2018-09-25T00:52:18.002Z,9.08
2018-09-25T00:54:18.044Z,9.11
2018-09-25T00:55:18.036Z,9.08
2018-09-25T00:56:18.048Z,9.10
2018-09-25T00:57:18.084Z,9.11
2018-09-25T00:58:18.079Z,9.08
2018-09-25T00:59:18.081Z,9.01
2018-09-25T01:00:18.094Z,9.10
2018-09-25T01:01:18.104Z,8.96
2018-09-25T01:02:18.128Z,9.05
2018-09-25T01:03:18.126Z,9.04
2018-09-25T01:04:18.139Z,9.05
2018-09-25T01:05:18.150Z,9.08
2018-09-25T01:06:18.160Z,8.99
2018-09-25T01:07:18.173Z,8.98
2018-09-25T01:08:18.185Z,8.99
2018-09-25T01:09:18.196Z,9.04
2018-09-25T01:10:18.205Z,9.04
2018-09-25T01:11:18.239Z,8.95
2018-09-25T01:12:18.229Z,9.01
2018-09-25T01:13:18.241Z,8.96
2018-09-25T01:14:18.251Z,9.01
2018-09-25T01:15:18.263Z,8.98
2018-09-25T01:16:18.275Z,8.98
2018-09-25T01:17:18.313Z,9.04
2018-09-25T01:18:18.300Z,8.98
2018-09-25T01:19:18.445Z,8.94
2018-09-25T01:20:18.320Z,8.95
2018-09-25T01:21:18.338Z,8.89
2018-09-25T01:22:18.354Z,8.94
2018-09-25T01:23:18.354Z,8.91
2018-09-25T01:24:18.364Z,8.81
2018-09-25T01:27:18.918Z,8.86
2018-09-25T01:28:18.413Z,8.79
2018-09-25T01:29:18.422Z,8.83
2018-09-25T01:30:18.437Z,8.84
2018-09-25T01:31:18.444Z,8.77
2018-09-25T01:32:18.458Z,8.81
2018-09-25T01:33:18.474Z,8.80
2018-09-25T01:34:18.480Z,8.70
2018-09-25T01:35:18.495Z,8.83
2018-09-25T01:36:18.502Z,8.81
2018-09-25T01:37:18.515Z,8.77
2018-09-25T01:38:18.525Z,8.71
2018-09-25T01:39:18.535Z,8.84
2018-09-25T01:40:18.554Z,8.86
2018-09-25T01:41:18.558Z,8.79
2018-09-25T01:42:18.569Z,8.73
2018-09-25T01:43:18.583Z,8.81
2018-09-25T01:44:18.619Z,8.76
2018-09-25T01:45:18.613Z,8.84
2018-09-25T01:46:18.616Z,8.74
2018-09-25T01:47:18.631Z,8.79
2018-09-25T01:48:18.643Z,8.76
2018-09-25T01:49:18.651Z,8.80
2018-09-25T01:50:18.663Z,8.79
2018-09-25T01:51:18.733Z,8.63
2018-09-25T01:52:18.691Z,8.61
2018-09-25T01:53:18.701Z,8.70
2018-09-25T01:54:18.728Z,8.73
2018-09-25T01:55:18.733Z,8.62
2018-09-25T01:56:18.730Z,8.58
2018-09-25T01:57:18.794Z,8.62
2018-09-25T01:58:19.057Z,8.58
2018-09-25T01:59:19.068Z,8.61
2018-09-25T02:00:18.787Z,8.63
2018-09-25T02:01:18.804Z,8.62
2018-09-25T02:02:18.799Z,8.59
2018-09-25T02:03:18.811Z,8.59
2018-09-25T02:04:18.822Z,8.62
2018-09-25T02:05:18.835Z,8.59
2018-09-25T02:06:18.846Z,8.59
2018-09-25T02:07:18.858Z,8.56
2018-09-25T02:08:18.867Z,8.52
2018-09-25T02:09:18.912Z,8.52
2018-09-25T02:10:18.907Z,8.55
2018-09-25T02:11:18.955Z,8.52
2018-09-25T02:12:18.916Z,8.47
2018-09-25T02:13:18.929Z,8.52
2018-09-25T02:14:18.937Z,8.47
2018-09-25T02:15:18.949Z,8.56
2018-09-25T02:16:18.960Z,8.48
2018-09-25T02:17:18.975Z,8.53
2018-09-25T02:18:18.983Z,8.58
2018-09-25T02:19:19.023Z,8.48
2018-09-25T02:20:19.006Z,8.55
2018-09-25T02:21:19.025Z,8.59
2018-09-25T02:22:19.028Z,8.61
2018-09-25T02:23:19.349Z,8.55
2018-09-25T02:24:19.054Z,8.71
2018-09-25T02:25:19.084Z,8.71
2018-09-25T02:26:19.074Z,8.58
2018-09-25T02:27:19.115Z,8.59
2018-09-25T02:28:19.148Z,8.61
2018-09-25T02:29:19.108Z,8.58
2018-09-25T02:30:19.123Z,8.58
2018-09-25T02:31:19.388Z,8.61
2018-09-25T02:33:19.731Z,8.59
2018-09-25T02:34:19.635Z,8.53
2018-09-25T02:35:19.201Z,8.55
2018-09-25T02:36:19.192Z,8.53
2018-09-25T02:37:19.204Z,8.47
2018-09-25T02:38:19.215Z,8.50
2018-09-25T02:39:19.227Z,8.45
2018-09-25T02:41:19.245Z,8.40
2018-09-25T02:42:19.256Z,8.40
2018-09-25T02:43:19.267Z,8.37
2018-09-25T02:44:19.283Z,8.36
2018-09-25T02:45:19.291Z,8.33
2018-09-25T02:46:19.300Z,8.29
2018-09-25T02:47:19.350Z,8.19
2018-09-25T02:48:19.356Z,8.29
2018-09-25T02:49:19.343Z,8.25
2018-09-25T02:50:19.358Z,8.19
2018-09-25T02:51:19.358Z,8.10
2018-09-25T02:52:19.369Z,8.15
2018-09-25T02:53:19.387Z,8.15
2018-09-25T02:54:19.405Z,8.11
2018-09-25T02:55:19.403Z,8.18
2018-09-25T02:56:19.417Z,8.08
2018-09-25T02:57:19.446Z,8.15
2018-09-25T02:58:19.442Z,8.15
2018-09-25T02:59:19.454Z,8.05
2018-09-25T03:00:19.462Z,8.04
2018-09-25T03:01:19.470Z,8.05
2018-09-25T03:02:19.534Z,8.01
2018-09-25T03:04:19.998Z,8.04
2018-09-25T03:05:19.518Z,8.01
2018-09-25T03:06:19.535Z,8.05
2018-09-25T03:07:19.545Z,8.01
2018-09-25T03:08:19.560Z,8.10
2018-09-25T03:09:19.574Z,8.04
2018-09-25T03:10:19.576Z,8.02
2018-09-25T03:11:19.584Z,8.10
2018-09-25T03:12:19.597Z,8.18
2018-09-25T03:13:19.607Z,8.04
2018-09-25T03:14:19.623Z,8.07
2018-09-25T03:15:19.633Z,7.97
2018-09-25T03:16:19.643Z,8.04
2018-09-25T03:17:19.663Z,8.02
2018-09-25T03:18:19.694Z,8.02
2018-09-25T03:19:19.758Z,8.02
2018-09-25T03:20:19.719Z,7.98
2018-09-25T03:21:19.705Z,8.04
2018-09-25T03:22:19.711Z,8.01
2018-09-25T03:23:19.725Z,7.98
2018-09-25T03:24:19.729Z,7.93
2018-09-25T03:25:19.768Z,8.01
2018-09-25T03:26:19.752Z,7.97
2018-09-25T03:27:19.773Z,7.97
2018-09-25T03:28:19.786Z,7.98
2018-09-25T03:29:19.786Z,7.90
2018-09-25T03:30:19.819Z,8.00
2018-09-25T03:31:19.810Z,7.98
2018-09-25T03:32:19.827Z,7.90
2018-09-25T03:33:19.881Z,7.93
2018-09-25T03:34:19.997Z,8.00
2018-09-25T03:37:19.890Z,7.89
2018-09-25T03:38:19.886Z,7.98
2018-09-25T03:39:19.897Z,7.98
2018-09-25T03:40:19.912Z,7.86
2018-09-25T03:41:19.919Z,7.93
2018-09-25T03:42:19.935Z,7.87
2018-09-25T03:43:19.971Z,7.85
2018-09-25T03:44:19.980Z,7.89
2018-09-25T03:45:19.969Z,7.87
2018-09-25T03:46:19.976Z,7.92
2018-09-25T03:47:19.998Z,7.86
2018-09-25T03:48:19.999Z,7.92
2018-09-25T03:49:20.011Z,7.87
2018-09-25T03:50:20.038Z,7.80
2018-09-25T03:51:20.044Z,7.82
2018-09-25T03:52:20.049Z,7.90
2018-09-25T03:53:20.054Z,7.83
2018-09-25T03:54:20.071Z,7.86
2018-09-25T03:55:20.091Z,7.86
2018-09-25T03:56:20.089Z,7.68
2018-09-25T03:57:20.104Z,7.74
2018-09-25T03:58:20.122Z,7.71
2018-09-25T03:59:20.122Z,7.71
2018-09-25T04:00:20.136Z,7.69
2018-09-25T04:01:20.144Z,7.61
2018-09-25T04:02:20.153Z,7.63
2018-09-25T04:03:20.172Z,7.60
2018-09-25T04:04:20.182Z,7.72
2018-09-25T04:05:20.239Z,7.69
2018-09-25T04:06:20.356Z,7.71
2018-09-25T04:07:20.232Z,7.75
2018-09-25T04:08:20.223Z,7.67
2018-09-25T04:09:20.256Z,7.69
2018-09-25T04:10:20.244Z,7.64
2018-09-25T04:11:20.286Z,7.75
2018-09-25T04:12:20.275Z,7.60
2018-09-25T04:13:20.277Z,7.64
2018-09-25T04:14:20.292Z,7.61
2018-09-25T04:15:20.298Z,7.45
2018-09-25T04:16:20.310Z,7.60
2018-09-25T04:17:20.322Z,7.61
2018-09-25T04:18:20.336Z,7.64
2018-09-25T04:19:20.347Z,7.48
2018-09-25T04:20:20.570Z,7.49
2018-09-25T04:21:20.383Z,7.60
2018-09-25T04:22:20.402Z,7.50
2018-09-25T04:23:20.387Z,7.57
2018-09-25T04:24:20.398Z,7.55
2018-09-25T04:25:20.410Z,7.57
2018-09-25T04:26:20.421Z,7.53
2018-09-25T04:27:20.440Z,7.49
2018-09-25T04:28:20.502Z,7.49
2018-09-25T04:29:20.453Z,7.55
2018-09-25T04:30:20.497Z,7.50
2018-09-25T04:31:20.490Z,7.52
2018-09-25T04:32:20.513Z,7.50
2018-09-25T04:33:20.502Z,7.48
2018-09-25T04:34:20.509Z,7.55
2018-09-25T04:35:20.638Z,7.60
2018-09-25T04:36:20.972Z,7.50
2018-09-25T04:37:20.565Z,7.45
2018-09-25T04:38:20.568Z,7.49
2018-09-25T04:39:20.569Z,7.57
2018-09-25T04:40:20.575Z,7.46
2018-09-25T04:41:20.587Z,7.42
2018-09-25T04:42:20.609Z,7.43
2018-09-25T04:43:20.623Z,7.42
2018-09-25T04:44:20.661Z,7.49
2018-09-25T04:45:20.631Z,7.40
2018-09-25T04:46:20.793Z,7.45
2018-09-25T04:47:20.656Z,7.45
2018-09-25T04:48:20.663Z,7.34
2018-09-25T04:49:20.818Z,7.42
2018-09-25T04:50:20.718Z,7.39
2018-09-25T04:51:20.694Z,7.40
2018-09-25T04:52:20.717Z,7.43
2018-09-25T04:53:20.737Z,7.43
2018-09-25T04:54:20.732Z,7.45
2018-09-25T04:55:20.738Z,7.49
2018-09-25T04:56:20.757Z,7.45
2018-09-25T04:57:20.763Z,7.43
2018-09-25T04:58:20.827Z,7.48
2018-09-25T04:59:20.825Z,7.34
2018-09-25T05:00:21.103Z,7.31
2018-09-25T05:01:20.930Z,7.31
2018-09-25T05:02:20.817Z,7.32
2018-09-25T05:03:20.825Z,7.30
2018-09-25T05:04:20.911Z,7.35
2018-09-25T05:05:20.868Z,7.40
2018-09-25T05:08:20.886Z,7.37
2018-09-25T05:09:21.674Z,7.42
2018-09-25T05:10:20.912Z,7.30
2018-09-25T05:11:20.929Z,7.35
2018-09-25T05:12:20.934Z,7.28
2018-09-25T05:14:21.002Z,7.20
2018-09-25T05:15:20.973Z,7.23
2018-09-25T05:16:20.968Z,7.21
2018-09-25T05:17:20.980Z,7.24
2018-09-25T05:18:20.994Z,7.24
2018-09-25T05:19:20.998Z,7.27
2018-09-25T05:20:21.016Z,7.27
2018-09-25T05:21:21.020Z,7.13
2018-09-25T05:22:21.081Z,7.21
2018-09-25T05:23:21.078Z,7.15
2018-09-25T05:24:21.054Z,7.15
2018-09-25T05:25:21.088Z,7.13
2018-09-25T05:26:21.076Z,7.15
2018-09-25T05:27:21.093Z,7.10
2018-09-25T05:28:21.096Z,7.09
2018-09-25T05:29:21.420Z,7.13
2018-09-25T05:30:21.117Z,7.12
2018-09-25T05:31:21.130Z,7.07
2018-09-25T05:33:21.155Z,7.12
2018-09-25T05:34:21.177Z,7.21
2018-09-25T05:35:21.193Z,7.17
2018-09-25T05:36:21.215Z,7.24
2018-09-25T05:37:21.198Z,7.10
2018-09-25T05:40:21.429Z,7.17
2018-09-25T05:41:21.238Z,7.17
2018-09-25T05:42:21.248Z,7.12
2018-09-25T05:43:21.262Z,7.10
2018-09-25T05:44:21.282Z,7.06
2018-09-25T05:45:21.281Z,7.10
2018-09-25T05:46:21.299Z,7.13
2018-09-25T05:47:21.334Z,7.13
2018-09-25T05:48:21.327Z,7.09
2018-09-25T05:49:21.330Z,7.07
2018-09-25T05:50:21.342Z,7.15
2018-09-25T05:51:21.354Z,7.09
2018-09-25T05:52:21.355Z,7.13
2018-09-25T05:53:21.377Z,7.09
2018-09-25T05:54:21.381Z,7.13
2018-09-25T05:55:21.748Z,7.06
2018-09-25T05:56:21.404Z,7.07
2018-09-25T05:57:21.418Z,7.25
2018-09-25T05:58:21.442Z,7.21
2018-09-25T05:59:21.448Z,7.12
2018-09-25T06:00:21.454Z,7.20
2018-09-25T06:01:21.455Z,7.27
2018-09-25T06:02:21.484Z,7.34
2018-09-25T06:03:21.480Z,7.45
2018-09-25T06:04:21.503Z,7.37
2018-09-25T06:05:21.740Z,7.45
2018-09-25T06:06:21.557Z,7.48
2018-09-25T06:07:21.528Z,7.46
2018-09-25T06:08:21.548Z,7.49
2018-09-25T06:10:21.674Z,7.42
2018-09-25T06:11:21.570Z,7.39
2018-09-25T06:12:21.585Z,7.31
2018-09-25T06:13:21.590Z,7.39
2018-09-25T06:14:21.651Z,7.37
2018-09-25T06:15:21.908Z,7.40
2018-09-25T06:17:21.635Z,7.46
2018-09-25T06:18:21.699Z,7.37
2018-09-25T06:19:21.652Z,7.43
2018-09-25T06:20:21.681Z,7.39
2018-09-25T06:21:21.683Z,7.31
2018-09-25T06:22:21.725Z,7.46
2018-09-25T06:23:21.714Z,7.46
2018-09-25T06:24:21.728Z,7.50
2018-09-25T06:25:21.719Z,7.49
2018-09-25T06:26:21.733Z,7.50
2018-09-25T06:27:21.780Z,7.49
2018-09-25T06:28:21.973Z,7.52
2018-09-25T06:30:22.124Z,7.55
2018-09-25T06:31:21.791Z,7.48
2018-09-25T06:32:21.806Z,7.55
2018-09-25T06:33:21.811Z,7.57
2018-09-25T06:34:21.821Z,7.50
2018-09-25T06:35:21.843Z,7.63
2018-09-25T06:36:21.843Z,7.52
2018-09-25T06:37:21.903Z,7.67
2018-09-25T06:38:21.862Z,7.64
2018-09-25T06:39:21.877Z,7.61
2018-09-25T06:40:21.888Z,7.63
2018-09-25T06:41:21.969Z,7.72
2018-09-25T06:42:21.911Z,7.69
2018-09-25T06:43:22.918Z,7.71
2018-09-25T06:44:21.940Z,7.74
2018-09-25T06:45:21.940Z,7.80
2018-09-25T06:46:22.099Z,7.89
2018-09-25T06:47:22.067Z,7.77
2018-09-25T06:48:21.971Z,7.92
2018-09-25T06:49:21.983Z,7.93
2018-09-25T06:50:21.994Z,7.93
2018-09-25T06:51:22.026Z,7.93
2018-09-25T06:52:22.021Z,7.93
2018-09-25T06:53:22.031Z,7.98
2018-09-25T06:54:22.055Z,7.95
2018-09-25T06:55:22.090Z,8.02
2018-09-25T06:56:22.060Z,8.00
2018-09-25T06:57:22.094Z,8.05
2018-09-25T06:58:22.150Z,8.02
2018-09-25T06:59:22.097Z,8.05
2018-09-25T07:00:22.161Z,8.02
2018-09-25T07:01:22.131Z,8.07
2018-09-25T07:02:22.241Z,8.08
2018-09-25T07:03:22.141Z,8.18
2018-09-25T07:04:22.157Z,8.12
2018-09-25T07:05:22.168Z,8.20
2018-09-25T07:06:22.184Z,8.19
2018-09-25T07:07:22.189Z,8.22
2018-09-25T07:08:22.196Z,8.28
2018-09-25T07:09:22.410Z,8.41
2018-09-25T07:10:22.361Z,8.52
2018-09-25T07:11:22.246Z,8.50
2018-09-25T07:12:22.241Z,8.56
2018-09-25T07:13:22.258Z,8.53
2018-09-25T07:14:22.263Z,8.56
2018-09-25T07:15:22.275Z,8.53
2018-09-25T07:16:22.286Z,8.70
2018-09-25T07:17:22.314Z,8.73
2018-09-25T07:18:22.325Z,8.63
2018-09-25T07:19:22.324Z,8.63
2018-09-25T07:20:22.333Z,8.73
2018-09-25T07:21:22.650Z,8.74
2018-09-25T07:22:22.354Z,8.83
2018-09-25T07:23:22.365Z,8.79
2018-09-25T07:24:22.370Z,8.95
2018-09-25T07:25:22.381Z,8.89
2018-09-25T07:26:22.838Z,8.98
2018-09-25T07:27:23.446Z,8.86
2018-09-25T07:28:22.816Z,9.02
2018-09-25T07:29:22.619Z,9.08
2018-09-25T07:30:22.442Z,9.15
2018-09-25T07:31:23.396Z,9.08
2018-09-25T07:32:22.596Z,9.23
2018-09-25T07:33:22.639Z,9.24
2018-09-25T07:34:22.508Z,9.21
2018-09-25T07:35:22.503Z,9.42
2018-09-25T07:36:22.713Z,9.36
2018-09-25T07:37:22.524Z,9.51
2018-09-25T07:38:22.609Z,9.51
2018-09-25T07:39:23.057Z,9.51
2018-09-25T07:40:22.726Z,9.47
2018-09-25T07:42:23.217Z,9.69
2018-09-25T07:43:22.627Z,9.79
2018-09-25T07:44:22.618Z,9.74
2018-09-25T07:45:22.737Z,9.84
2018-09-25T07:46:22.743Z,9.84
2018-09-25T07:47:22.640Z,9.94
2018-09-25T07:48:22.771Z,9.91
2018-09-25T07:49:22.666Z,9.90
2018-09-25T07:50:22.673Z,9.94
2018-09-25T07:51:22.685Z,9.97
2018-09-25T07:52:22.699Z,9.93
2018-09-25T07:53:22.710Z,9.91
2018-09-25T07:54:22.975Z,9.94
2018-09-25T07:55:22.785Z,9.94
2018-09-25T07:56:22.749Z,10.01
2018-09-25T07:57:22.757Z,10.08
2018-09-25T07:58:22.785Z,10.02
2018-09-25T07:59:23.110Z,10.12
2018-09-25T08:00:22.794Z,10.09
2018-09-25T08:01:22.807Z,10.20
2018-09-25T08:02:22.838Z,10.09
2018-09-25T08:03:23.481Z,10.17
2018-09-25T08:04:22.898Z,10.27
2018-09-25T08:05:22.855Z,10.22
2018-09-25T08:06:22.880Z,10.33
2018-09-25T08:07:22.877Z,10.36
2018-09-25T08:08:22.891Z,10.36
2018-09-25T08:09:22.961Z,10.38
2018-09-25T08:10:22.915Z,10.45
2018-09-25T08:11:22.927Z,10.48
2018-09-25T08:12:22.939Z,10.47
2018-09-25T08:13:22.974Z,10.59
2018-09-25T08:14:22.967Z,10.61
2018-09-25T08:15:23.051Z,10.64
2018-09-25T08:16:23.104Z,10.61
2018-09-25T08:17:23.002Z,10.68
2018-09-25T08:18:23.038Z,10.76
2018-09-25T08:19:23.036Z,10.79
2018-09-25T08:20:23.752Z,10.68
2018-09-25T08:21:23.320Z,10.76
2018-09-25T08:22:23.078Z,10.76
2018-09-25T08:23:23.075Z,10.91
2018-09-25T08:24:23.087Z,10.97
2018-09-25T08:25:23.103Z,11.02
2018-09-25T08:26:23.164Z,11.04
2018-09-25T08:27:23.122Z,11.14
2018-09-25T08:28:24.213Z,11.11
2018-09-25T08:29:23.690Z,11.07
2018-09-25T08:30:23.353Z,11.15
2018-09-25T08:31:23.187Z,11.15
2018-09-25T08:32:23.191Z,11.22
2018-09-25T08:33:23.205Z,11.22
2018-09-25T08:34:23.210Z,11.18
2018-09-25T08:35:23.235Z,11.28
2018-09-25T08:36:23.237Z,11.33
2018-09-25T08:37:23.251Z,11.33
2018-09-25T08:38:23.336Z,11.32
2018-09-25T08:39:23.377Z,11.32
2018-09-25T08:40:23.303Z,11.35
2018-09-25T08:41:23.301Z,11.37
2018-09-25T08:42:23.311Z,11.44
2018-09-25T08:43:23.325Z,11.52
2018-09-25T08:44:23.339Z,11.54
2018-09-25T08:45:23.356Z,11.57
2018-09-25T08:46:23.363Z,11.58
2018-09-25T08:47:23.377Z,11.70
2018-09-25T08:48:23.388Z,11.67
2018-09-25T08:49:23.399Z,11.75
2018-09-25T08:50:23.411Z,11.79
2018-09-25T08:51:23.423Z,11.70
2018-09-25T08:52:23.438Z,11.80
2018-09-25T08:53:23.674Z,11.79
2018-09-25T08:54:23.462Z,11.88
2018-09-25T08:55:23.879Z,11.96
2018-09-25T08:56:23.489Z,11.98
2018-09-25T08:57:23.544Z,12.01
2018-09-25T08:58:24.416Z,11.98
2018-09-25T08:59:24.549Z,12.07
2018-09-25T09:00:23.581Z,12.01
2018-09-25T09:01:23.908Z,12.07
2018-09-25T09:02:23.566Z,12.17
2018-09-25T09:03:23.581Z,12.19
2018-09-25T09:04:23.602Z,12.17
2018-09-25T09:05:23.617Z,12.27
2018-09-25T09:06:23.625Z,12.32
2018-09-25T09:07:23.628Z,12.24
2018-09-25T09:08:23.716Z,12.35
2018-09-25T09:09:23.658Z,12.41
2018-09-25T09:10:23.692Z,12.49
2018-09-25T09:11:23.698Z,12.47
2018-09-25T09:12:23.694Z,12.52
2018-09-25T09:13:24.155Z,12.52
2018-09-25T09:14:23.719Z,12.54
2018-09-25T09:15:23.730Z,12.60
2018-09-25T09:16:23.780Z,12.74
2018-09-25T09:17:23.806Z,12.75
2018-09-25T09:18:23.793Z,12.82
2018-09-25T09:19:23.785Z,12.79
2018-09-25T09:20:23.798Z,12.87
2018-09-25T09:21:23.833Z,12.89
2018-09-25T09:22:23.823Z,12.89
2018-09-25T09:23:23.850Z,12.92
2018-09-25T09:24:23.853Z,13.00
2018-09-25T09:25:23.861Z,12.95
2018-09-25T09:26:23.880Z,12.92
2018-09-25T09:27:23.998Z,12.97
2018-09-25T09:28:23.901Z,13.03
2018-09-25T09:29:23.915Z,13.11
2018-09-25T09:30:23.927Z,13.15
2018-09-25T09:31:24.142Z,13.33
2018-09-25T09:32:23.992Z,13.39
2018-09-25T09:33:24.255Z,13.33
2018-09-25T09:34:23.984Z,13.49
2018-09-25T09:35:23.991Z,13.51
2018-09-25T09:36:24.007Z,13.46
2018-09-25T09:37:24.018Z,13.49
2018-09-25T09:38:24.031Z,13.60
2018-09-25T09:39:24.043Z,13.60
2018-09-25T09:40:24.057Z,13.57
2018-09-25T09:41:24.179Z,13.60
2018-09-25T09:42:24.096Z,13.55
2018-09-25T09:43:24.099Z,13.60
2018-09-25T09:44:24.114Z,13.70
2018-09-25T09:45:24.124Z,13.71
2018-09-25T09:46:24.136Z,13.82
2018-09-25T09:47:24.164Z,13.82
2018-09-25T09:48:24.163Z,13.87
2018-09-25T09:49:24.774Z,13.82
2018-09-25T09:50:24.683Z,13.89
2018-09-25T09:51:24.552Z,14.07
2018-09-25T09:52:24.256Z,14.03
2018-09-25T09:53:25.475Z,14.04
2018-09-25T09:54:24.254Z,14.04
2018-09-25T09:55:24.272Z,14.15
2018-09-25T09:56:24.314Z,14.15
2018-09-25T09:57:24.286Z,14.24
2018-09-25T09:58:24.297Z,14.20
2018-09-25T09:59:24.309Z,14.36
2018-09-25T10:00:25.136Z,14.36
2018-09-25T10:01:24.445Z,14.51
2018-09-25T10:02:24.352Z,14.45
2018-09-25T10:03:24.366Z,14.46
2018-09-25T10:04:24.382Z,14.58
2018-09-25T10:05:24.391Z,14.54
2018-09-25T10:06:25.906Z,14.37
2018-09-25T10:07:24.434Z,14.39
2018-09-25T10:08:24.435Z,14.25
2018-09-25T10:09:24.467Z,14.29
2018-09-25T10:10:24.804Z,14.22
2018-09-25T10:11:24.475Z,14.35
2018-09-25T10:12:24.544Z,14.52
2018-09-25T10:13:24.536Z,14.58
2018-09-25T10:14:24.526Z,14.70
2018-09-25T10:15:24.575Z,14.83
2018-09-25T10:16:24.794Z,14.84
2018-09-25T10:17:24.570Z,14.95
2018-09-25T10:18:24.574Z,14.89
2018-09-25T10:19:24.596Z,14.91
2018-09-25T10:20:25.031Z,14.94
2018-09-25T10:21:24.619Z,14.98
2018-09-25T10:22:24.631Z,14.96
2018-09-25T10:23:24.644Z,14.95
2018-09-25T10:24:24.673Z,14.80
2018-09-25T10:25:24.675Z,14.72
2018-09-25T10:26:24.681Z,14.61
2018-09-25T10:27:24.754Z,14.57
2018-09-25T10:28:24.717Z,14.51
2018-09-25T10:29:24.728Z,14.37
2018-09-25T10:30:24.737Z,14.50
2018-09-25T10:32:24.810Z,14.50
2018-09-25T10:33:24.796Z,14.46
2018-09-25T10:34:24.792Z,14.45
2018-09-25T10:35:24.831Z,14.46
2018-09-25T10:36:25.628Z,14.50
2018-09-25T10:37:25.198Z,14.29
2018-09-25T10:38:24.857Z,14.22
2018-09-25T10:39:25.220Z,14.25
2018-09-25T10:40:24.874Z,14.36
2018-09-25T10:41:25.036Z,14.37
2018-09-25T10:42:24.902Z,14.27
2018-09-25T10:43:25.232Z,14.22
2018-09-25T10:44:25.233Z,14.22
2018-09-25T10:45:24.953Z,14.18
2018-09-25T10:46:24.955Z,14.15
2018-09-25T10:47:24.965Z,14.15
2018-09-25T10:48:25.031Z,14.15
2018-09-25T10:49:24.993Z,14.12
2018-09-25T10:50:25.022Z,14.14
2018-09-25T10:51:25.083Z,14.20
2018-09-25T10:52:25.058Z,14.18
2018-09-25T10:53:25.058Z,14.21
2018-09-25T10:54:25.062Z,14.17
2018-09-25T10:55:25.112Z,14.12
2018-09-25T10:56:25.088Z,14.27
2018-09-25T10:57:25.100Z,14.18
2018-09-25T10:58:25.151Z,14.21
2018-09-25T10:59:25.128Z,14.12
2018-09-25T11:00:25.149Z,14.10
2018-09-25T11:01:25.156Z,14.27
2018-09-25T11:02:25.169Z,14.40
2018-09-25T11:03:25.185Z,14.45
2018-09-25T11:04:25.260Z,14.62
2018-09-25T11:05:25.216Z,14.78
2018-09-25T11:06:25.223Z,14.98
2018-09-25T11:07:25.241Z,15.09
2018-09-25T11:08:25.264Z,15.27
2018-09-25T11:09:25.265Z,15.38
2018-09-25T11:10:25.339Z,15.50
2018-09-25T11:11:25.293Z,15.50
2018-09-25T11:12:25.310Z,15.56
2018-09-25T11:13:25.325Z,15.65
2018-09-25T11:14:25.362Z,15.75
2018-09-25T11:15:25.383Z,15.76
2018-09-25T11:16:25.374Z,15.93
2018-09-25T11:17:25.891Z,15.76
2018-09-25T11:18:25.422Z,15.72
2018-09-25T11:19:25.409Z,15.78
2018-09-25T11:20:25.424Z,15.76
2018-09-25T11:21:25.458Z,15.74
2018-09-25T11:22:25.452Z,15.76
2018-09-25T11:23:25.494Z,15.84
2018-09-25T11:24:25.478Z,15.78
2018-09-25T11:25:25.523Z,15.74
2018-09-25T11:26:25.516Z,15.80
2018-09-25T11:27:25.524Z,15.69
2018-09-25T11:28:25.533Z,15.75
2018-09-25T11:29:25.563Z,15.76
2018-09-25T11:30:25.857Z,15.87
2018-09-25T11:31:25.602Z,15.97
2018-09-25T11:32:25.599Z,16.04
2018-09-25T11:33:25.608Z,15.78
2018-09-25T11:34:25.623Z,15.65
2018-09-25T11:35:27.466Z,15.44
2018-09-25T11:37:26.429Z,15.34
2018-09-25T11:38:25.707Z,15.32
2018-09-25T11:39:25.703Z,15.38
2018-09-25T11:40:25.704Z,15.41
2018-09-25T11:41:25.820Z,15.56
2018-09-25T11:42:26.222Z,15.43
2018-09-25T11:43:25.797Z,15.49
2018-09-25T11:45:27.464Z,15.49
2018-09-25T11:46:25.805Z,15.68
2018-09-25T11:47:26.030Z,15.72
2018-09-25T11:48:25.852Z,15.62
2018-09-25T11:49:25.856Z,15.57
2018-09-25T11:50:25.846Z,15.51
2018-09-25T11:51:25.860Z,15.36
2018-09-25T11:52:25.875Z,15.38
2018-09-25T11:53:25.963Z,15.38
2018-09-25T11:54:25.902Z,15.39
2018-09-25T11:55:25.915Z,15.32
2018-09-25T11:56:25.961Z,15.39
2018-09-25T11:57:25.944Z,15.39
2018-09-25T11:58:25.962Z,15.49
2018-09-25T11:59:25.973Z,15.64
2018-09-25T12:00:26.087Z,15.65
2018-09-25T12:01:26.001Z,15.62
2018-09-25T12:02:28.070Z,15.69
2018-09-25T12:03:26.027Z,15.75
2018-09-25T12:04:26.046Z,15.51
2018-09-25T12:05:26.059Z,15.53
2018-09-25T12:06:26.069Z,15.60
2018-09-25T12:07:26.082Z,15.64
2018-09-25T12:08:26.097Z,15.50
2018-09-25T12:09:26.152Z,15.51
2018-09-25T12:10:26.129Z,15.72
2018-09-25T12:11:26.141Z,15.78
2018-09-25T12:12:26.158Z,15.54
2018-09-25T12:13:26.605Z,15.68
2018-09-25T12:14:26.273Z,15.69
2018-09-25T12:15:26.933Z,15.72
2018-09-25T12:16:27.526Z,15.65
2018-09-25T12:18:27.414Z,15.90
2018-09-25T12:19:26.252Z,16.09
2018-09-25T12:20:26.379Z,16.28
2018-09-25T12:21:26.285Z,16.35
2018-09-25T12:22:26.506Z,16.45
2018-09-25T12:23:26.375Z,16.45
2018-09-25T12:24:26.398Z,16.34
2018-09-25T12:25:26.351Z,16.34
2018-09-25T12:26:26.358Z,16.34
2018-09-25T12:27:26.368Z,16.38
2018-09-25T12:28:26.433Z,16.41
2018-09-25T12:29:27.004Z,16.52
2018-09-25T12:30:26.410Z,16.71
2018-09-25T12:31:26.490Z,16.79
2018-09-25T12:32:26.510Z,16.97
2018-09-25T12:33:26.452Z,17.22
2018-09-25T12:34:27.111Z,17.21
2018-09-25T12:35:26.484Z,17.00
2018-09-25T12:36:26.502Z,16.98
2018-09-25T12:37:26.513Z,16.97
2018-09-25T12:38:26.860Z,16.78
2018-09-25T12:39:28.183Z,16.79
2018-09-25T12:40:26.608Z,16.98
2018-09-25T12:41:26.570Z,17.11
2018-09-25T12:42:26.584Z,17.22
2018-09-25T12:43:26.602Z,17.07
2018-09-25T12:44:26.702Z,16.96
2018-09-25T12:45:26.764Z,16.82
2018-09-25T12:46:28.416Z,16.82
2018-09-25T12:47:27.337Z,16.79
2018-09-25T12:48:27.965Z,16.76
2018-09-25T12:50:27.907Z,16.97
2018-09-25T12:51:26.820Z,17.01
2018-09-25T12:52:26.768Z,16.96
2018-09-25T12:53:26.761Z,16.81
2018-09-25T12:54:26.784Z,16.88
2018-09-25T12:55:26.786Z,16.94
2018-09-25T12:56:26.802Z,16.82
2018-09-25T12:57:26.816Z,16.81
2018-09-25T12:58:26.821Z,16.79
2018-09-25T12:59:26.832Z,16.82
2018-09-25T13:00:26.847Z,16.78
2018-09-25T13:01:26.862Z,16.83
2018-09-25T13:02:26.930Z,16.78
2018-09-25T13:03:26.889Z,16.83
2018-09-25T13:04:28.683Z,16.86
2018-09-25T13:05:26.968Z,16.82
2018-09-25T13:06:28.091Z,16.93
2018-09-25T13:07:27.072Z,17.04
2018-09-25T13:08:27.069Z,17.11
2018-09-25T13:09:27.159Z,17.08
2018-09-25T13:10:27.011Z,17.07
2018-09-25T13:11:27.058Z,16.91
2018-09-25T13:12:27.022Z,16.76
2018-09-25T13:13:27.036Z,16.73
2018-09-25T13:14:27.064Z,16.68
2018-09-25T13:15:27.067Z,16.68
2018-09-25T13:16:27.715Z,16.70
2018-09-25T13:17:28.522Z,16.64
2018-09-25T13:18:27.521Z,16.63
2018-09-25T13:19:27.125Z,16.63
2018-09-25T13:20:27.473Z,16.64
2018-09-25T13:22:27.198Z,16.48
2018-09-25T13:23:29.109Z,16.56
2018-09-25T13:24:29.248Z,16.57
2018-09-25T13:25:27.225Z,16.70
2018-09-25T13:26:29.328Z,16.85
2018-09-25T13:27:27.402Z,16.79
2018-09-25T13:28:27.467Z,16.79
2018-09-25T13:29:27.286Z,16.79
2018-09-25T13:30:27.291Z,16.82
2018-09-25T13:31:27.315Z,16.71